sensor_id;sensor_type;location;lat;lon;timestamp;P1;durP1;ratioP1;P2;durP2;ratioP2
9968;SDS011;5025;48.890;9.278;2022-10-16T00:01:37;1.53;;;1.40;;
9968;SDS011;5025;48.890;9.278;2022-10-16T00:04:03;1.63;;;1.33;;
9968;SDS011;5025;48.890;9.278;2022-10-16T00:06:29;1.60;;;1.50;;
9968;SDS011;5025;48.890;9.278;2022-10-16T00:08:55;1.53;;;1.43;;
9968;SDS011;5025;48.890;9.278;2022-10-16T00:11:23;1.50;;;1.40;;
9968;SDS011;5025;48.890;9.278;2022-10-16T00:13:51;1.40;;;1.40;;
9968;SDS011;5025;48.890;9.278;2022-10-16T00:16:19;1.60;;;1.50;;
9968;SDS011;5025;48.890;9.278;2022-10-16T00:18:45;1.30;;;1.30;;
9968;SDS011;5025;48.890;9.278;2022-10-16T00:21:11;1.30;;;1.30;;
9968;SDS011;5025;48.890;9.278;2022-10-16T00:23:38;1.30;;;1.30;;
9968;SDS011;5025;48.890;9.278;2022-10-16T00:26:06;1.30;;;1.20;;
9968;SDS011;5025;48.890;9.278;2022-10-16T00:28:37;1.13;;;1.13;;
9968;SDS011;5025;48.890;9.278;2022-10-16T00:31:06;1.33;;;1.23;;
9968;SDS011;5025;48.890;9.278;2022-10-16T00:33:33;1.40;;;1.40;;
9968;SDS011;5025;48.890;9.278;2022-10-16T00:36:00;1.40;;;1.40;;
9968;SDS011;5025;48.890;9.278;2022-10-16T00:38:26;1.20;;;1.20;;
9968;SDS011;5025;48.890;9.278;2022-10-16T00:40:51;1.37;;;1.37;;
9968;SDS011;5025;48.890;9.278;2022-10-16T00:43:37;1.30;;;1.30;;
9968;SDS011;5025;48.890;9.278;2022-10-16T00:46:05;1.20;;;1.20;;
9968;SDS011;5025;48.890;9.278;2022-10-16T00:48:36;1.30;;;1.30;;
9968;SDS011;5025;48.890;9.278;2022-10-16T00:51:01;1.47;;;1.37;;
9968;SDS011;5025;48.890;9.278;2022-10-16T00:53:27;1.47;;;1.43;;
9968;SDS011;5025;48.890;9.278;2022-10-16T00:55:53;1.40;;;1.40;;
9968;SDS011;5025;48.890;9.278;2022-10-16T00:58:19;1.60;;;1.50;;
9968;SDS011;5025;48.890;9.278;2022-10-16T01:00:45;1.30;;;1.30;;
9968;SDS011;5025;48.890;9.278;2022-10-16T01:03:24;1.23;;;1.20;;
9968;SDS011;5025;48.890;9.278;2022-10-16T01:05:59;1.53;;;1.43;;
9968;SDS011;5025;48.890;9.278;2022-10-16T01:14:24;1.37;;;1.37;;
9968;SDS011;5025;48.890;9.278;2022-10-16T01:17:01;1.23;;;1.23;;
9968;SDS011;5025;48.890;9.278;2022-10-16T01:22:28;1.30;;;1.30;;
9968;SDS011;5025;48.890;9.278;2022-10-16T01:25:11;1.30;;;1.30;;
9968;SDS011;5025;48.890;9.278;2022-10-16T01:27:43;1.30;;;1.30;;
9968;SDS011;5025;48.890;9.278;2022-10-16T01:30:29;1.60;;;1.50;;
9968;SDS011;5025;48.890;9.278;2022-10-16T01:33:08;1.30;;;1.30;;
9968;SDS011;5025;48.890;9.278;2022-10-16T01:35:41;1.50;;;1.40;;
9968;SDS011;5025;48.890;9.278;2022-10-16T01:38:21;1.40;;;1.40;;
9968;SDS011;5025;48.890;9.278;2022-10-16T01:40:56;1.50;;;1.50;;
9968;SDS011;5025;48.890;9.278;2022-10-16T01:43:28;1.43;;;1.40;;
9968;SDS011;5025;48.890;9.278;2022-10-16T01:46:00;1.20;;;1.20;;
9968;SDS011;5025;48.890;9.278;2022-10-16T01:48:26;1.63;;;1.43;;
9968;SDS011;5025;48.890;9.278;2022-10-16T01:51:03;1.40;;;1.40;;
9968;SDS011;5025;48.890;9.278;2022-10-16T01:53:32;1.43;;;1.30;;
9968;SDS011;5025;48.890;9.278;2022-10-16T01:55:58;1.20;;;1.20;;
9968;SDS011;5025;48.890;9.278;2022-10-16T01:58:26;1.20;;;1.20;;
9968;SDS011;5025;48.890;9.278;2022-10-16T02:00:55;3.03;;;1.40;;
9968;SDS011;5025;48.890;9.278;2022-10-16T02:03:21;1.20;;;1.20;;
9968;SDS011;5025;48.890;9.278;2022-10-16T02:05:51;1.00;;;1.00;;
9968;SDS011;5025;48.890;9.278;2022-10-16T02:08:19;1.20;;;1.20;;
9968;SDS011;5025;48.890;9.278;2022-10-16T02:10:47;1.40;;;1.27;;
9968;SDS011;5025;48.890;9.278;2022-10-16T02:13:13;1.60;;;1.20;;
9968;SDS011;5025;48.890;9.278;2022-10-16T02:15:39;1.30;;;1.20;;
9968;SDS011;5025;48.890;9.278;2022-10-16T02:18:05;3.90;;;1.43;;
9968;SDS011;5025;48.890;9.278;2022-10-16T02:20:33;1.27;;;1.27;;
9968;SDS011;5025;48.890;9.278;2022-10-16T02:23:05;1.63;;;1.40;;
9968;SDS011;5025;48.890;9.278;2022-10-16T02:25:37;1.30;;;1.30;;
9968;SDS011;5025;48.890;9.278;2022-10-16T02:28:24;1.40;;;1.40;;
9968;SDS011;5025;48.890;9.278;2022-10-16T02:30:57;1.30;;;1.30;;
9968;SDS011;5025;48.890;9.278;2022-10-16T02:33:35;1.63;;;1.20;;
9968;SDS011;5025;48.890;9.278;2022-10-16T02:36:03;1.40;;;1.30;;
9968;SDS011;5025;48.890;9.278;2022-10-16T02:38:29;1.43;;;1.40;;
9968;SDS011;5025;48.890;9.278;2022-10-16T02:40:55;1.60;;;1.50;;
9968;SDS011;5025;48.890;9.278;2022-10-16T02:43:21;1.40;;;1.30;;
9968;SDS011;5025;48.890;9.278;2022-10-16T02:45:46;1.20;;;1.20;;
9968;SDS011;5025;48.890;9.278;2022-10-16T02:48:12;1.53;;;1.50;;
9968;SDS011;5025;48.890;9.278;2022-10-16T02:50:37;1.30;;;1.30;;
9968;SDS011;5025;48.890;9.278;2022-10-16T02:53:02;1.23;;;1.23;;
9968;SDS011;5025;48.890;9.278;2022-10-16T02:55:27;1.30;;;1.30;;
9968;SDS011;5025;48.890;9.278;2022-10-16T02:57:53;1.30;;;1.30;;
9968;SDS011;5025;48.890;9.278;2022-10-16T03:00:19;1.20;;;1.20;;
9968;SDS011;5025;48.890;9.278;2022-10-16T03:02:45;1.30;;;1.30;;
9968;SDS011;5025;48.890;9.278;2022-10-16T03:05:11;1.30;;;1.30;;
9968;SDS011;5025;48.890;9.278;2022-10-16T03:07:37;1.17;;;1.17;;
9968;SDS011;5025;48.890;9.278;2022-10-16T03:10:02;1.30;;;1.30;;
9968;SDS011;5025;48.890;9.278;2022-10-16T03:12:28;1.40;;;1.30;;
9968;SDS011;5025;48.890;9.278;2022-10-16T03:14:57;1.30;;;1.30;;
9968;SDS011;5025;48.890;9.278;2022-10-16T03:17:23;1.10;;;1.10;;
9968;SDS011;5025;48.890;9.278;2022-10-16T03:19:49;1.30;;;1.20;;
9968;SDS011;5025;48.890;9.278;2022-10-16T03:22:15;1.10;;;1.10;;
9968;SDS011;5025;48.890;9.278;2022-10-16T03:24:40;1.10;;;1.10;;
9968;SDS011;5025;48.890;9.278;2022-10-16T03:27:05;1.30;;;1.30;;
9968;SDS011;5025;48.890;9.278;2022-10-16T03:29:31;1.20;;;1.20;;
9968;SDS011;5025;48.890;9.278;2022-10-16T03:31:57;1.20;;;1.20;;
9968;SDS011;5025;48.890;9.278;2022-10-16T03:34:23;1.40;;;1.40;;
9968;SDS011;5025;48.890;9.278;2022-10-16T03:36:49;1.47;;;1.40;;
9968;SDS011;5025;48.890;9.278;2022-10-16T03:39:14;2.63;;;1.20;;
9968;SDS011;5025;48.890;9.278;2022-10-16T03:41:40;1.30;;;1.30;;
9968;SDS011;5025;48.890;9.278;2022-10-16T03:44:05;1.30;;;1.30;;
9968;SDS011;5025;48.890;9.278;2022-10-16T03:46:31;1.23;;;1.20;;
9968;SDS011;5025;48.890;9.278;2022-10-16T03:48:56;1.27;;;1.27;;
9968;SDS011;5025;48.890;9.278;2022-10-16T03:51:21;1.10;;;1.10;;
9968;SDS011;5025;48.890;9.278;2022-10-16T03:53:47;1.17;;;1.17;;
9968;SDS011;5025;48.890;9.278;2022-10-16T03:56:12;1.10;;;1.10;;
9968;SDS011;5025;48.890;9.278;2022-10-16T03:58:37;1.10;;;1.10;;
9968;SDS011;5025;48.890;9.278;2022-10-16T04:01:03;1.13;;;1.13;;
9968;SDS011;5025;48.890;9.278;2022-10-16T04:03:28;1.20;;;1.20;;
9968;SDS011;5025;48.890;9.278;2022-10-16T04:05:54;1.40;;;1.30;;
9968;SDS011;5025;48.890;9.278;2022-10-16T04:08:19;1.10;;;1.10;;
9968;SDS011;5025;48.890;9.278;2022-10-16T04:10:45;1.10;;;1.10;;
9968;SDS011;5025;48.890;9.278;2022-10-16T04:13:10;1.20;;;1.20;;
9968;SDS011;5025;48.890;9.278;2022-10-16T04:15:36;1.23;;;1.20;;
9968;SDS011;5025;48.890;9.278;2022-10-16T04:18:03;1.17;;;1.10;;
9968;SDS011;5025;48.890;9.278;2022-10-16T04:20:28;1.20;;;1.20;;
9968;SDS011;5025;48.890;9.278;2022-10-16T04:22:54;1.37;;;1.27;;
9968;SDS011;5025;48.890;9.278;2022-10-16T04:25:20;1.20;;;1.20;;
9968;SDS011;5025;48.890;9.278;2022-10-16T04:27:45;1.30;;;1.30;;
9968;SDS011;5025;48.890;9.278;2022-10-16T04:30:10;1.40;;;1.30;;
9968;SDS011;5025;48.890;9.278;2022-10-16T04:32:36;1.30;;;1.30;;
9968;SDS011;5025;48.890;9.278;2022-10-16T04:35:01;1.50;;;1.40;;
9968;SDS011;5025;48.890;9.278;2022-10-16T04:37:27;1.80;;;1.30;;
9968;SDS011;5025;48.890;9.278;2022-10-16T04:39:53;1.17;;;1.03;;
9968;SDS011;5025;48.890;9.278;2022-10-16T04:42:19;1.40;;;1.40;;
9968;SDS011;5025;48.890;9.278;2022-10-16T04:44:45;1.43;;;1.33;;
9968;SDS011;5025;48.890;9.278;2022-10-16T04:47:11;1.67;;;1.60;;
9968;SDS011;5025;48.890;9.278;2022-10-16T04:49:37;1.40;;;1.40;;
9968;SDS011;5025;48.890;9.278;2022-10-16T04:52:02;1.30;;;1.30;;
9968;SDS011;5025;48.890;9.278;2022-10-16T04:54:27;1.70;;;1.60;;
9968;SDS011;5025;48.890;9.278;2022-10-16T04:56:53;1.73;;;1.63;;
9968;SDS011;5025;48.890;9.278;2022-10-16T04:59:19;1.80;;;1.57;;
9968;SDS011;5025;48.890;9.278;2022-10-16T05:01:44;1.67;;;1.57;;
9968;SDS011;5025;48.890;9.278;2022-10-16T05:04:10;1.60;;;1.60;;
9968;SDS011;5025;48.890;9.278;2022-10-16T05:06:36;1.50;;;1.50;;
9968;SDS011;5025;48.890;9.278;2022-10-16T05:09:03;1.80;;;1.70;;
9968;SDS011;5025;48.890;9.278;2022-10-16T05:11:29;1.83;;;1.73;;
9968;SDS011;5025;48.890;9.278;2022-10-16T05:13:54;1.70;;;1.70;;
9968;SDS011;5025;48.890;9.278;2022-10-16T05:16:20;1.70;;;1.60;;
9968;SDS011;5025;48.890;9.278;2022-10-16T05:18:45;1.70;;;1.70;;
9968;SDS011;5025;48.890;9.278;2022-10-16T05:21:10;1.67;;;1.60;;
9968;SDS011;5025;48.890;9.278;2022-10-16T05:23:36;1.83;;;1.73;;
9968;SDS011;5025;48.890;9.278;2022-10-16T05:26:01;1.63;;;1.60;;
9968;SDS011;5025;48.890;9.278;2022-10-16T05:28:27;1.50;;;1.50;;
9968;SDS011;5025;48.890;9.278;2022-10-16T05:30:54;2.03;;;1.93;;
9968;SDS011;5025;48.890;9.278;2022-10-16T05:33:20;2.70;;;2.60;;
9968;SDS011;5025;48.890;9.278;2022-10-16T05:35:47;2.33;;;2.23;;
9968;SDS011;5025;48.890;9.278;2022-10-16T05:38:12;2.03;;;1.93;;
9968;SDS011;5025;48.890;9.278;2022-10-16T05:40:38;1.70;;;1.60;;
9968;SDS011;5025;48.890;9.278;2022-10-16T05:43:04;2.00;;;1.90;;
9968;SDS011;5025;48.890;9.278;2022-10-16T05:45:30;2.20;;;2.10;;
9968;SDS011;5025;48.890;9.278;2022-10-16T05:47:55;2.00;;;1.90;;
9968;SDS011;5025;48.890;9.278;2022-10-16T05:50:21;2.10;;;2.00;;
9968;SDS011;5025;48.890;9.278;2022-10-16T05:52:46;1.90;;;1.80;;
9968;SDS011;5025;48.890;9.278;2022-10-16T05:55:11;2.03;;;1.93;;
9968;SDS011;5025;48.890;9.278;2022-10-16T05:57:37;1.57;;;1.50;;
9968;SDS011;5025;48.890;9.278;2022-10-16T06:00:02;1.70;;;1.63;;
9968;SDS011;5025;48.890;9.278;2022-10-16T06:02:28;1.70;;;1.60;;
9968;SDS011;5025;48.890;9.278;2022-10-16T06:04:54;4.57;;;2.13;;
9968;SDS011;5025;48.890;9.278;2022-10-16T06:07:19;1.60;;;1.60;;
9968;SDS011;5025;48.890;9.278;2022-10-16T06:09:49;1.50;;;1.50;;
9968;SDS011;5025;48.890;9.278;2022-10-16T06:12:15;1.47;;;1.47;;
9968;SDS011;5025;48.890;9.278;2022-10-16T06:14:40;1.90;;;1.53;;
9968;SDS011;5025;48.890;9.278;2022-10-16T06:17:06;1.70;;;1.60;;
9968;SDS011;5025;48.890;9.278;2022-10-16T06:19:31;1.90;;;1.80;;
9968;SDS011;5025;48.890;9.278;2022-10-16T06:21:56;2.00;;;1.63;;
9968;SDS011;5025;48.890;9.278;2022-10-16T06:24:23;1.80;;;1.70;;
9968;SDS011;5025;48.890;9.278;2022-10-16T06:26:48;1.63;;;1.53;;
9968;SDS011;5025;48.890;9.278;2022-10-16T06:29:14;1.43;;;1.43;;
9968;SDS011;5025;48.890;9.278;2022-10-16T06:31:39;1.70;;;1.70;;
9968;SDS011;5025;48.890;9.278;2022-10-16T06:34:04;1.60;;;1.50;;
9968;SDS011;5025;48.890;9.278;2022-10-16T06:36:34;1.70;;;1.60;;
9968;SDS011;5025;48.890;9.278;2022-10-16T06:39:00;1.30;;;1.30;;
9968;SDS011;5025;48.890;9.278;2022-10-16T06:41:25;1.97;;;1.73;;
9968;SDS011;5025;48.890;9.278;2022-10-16T06:43:50;1.70;;;1.60;;
9968;SDS011;5025;48.890;9.278;2022-10-16T06:46:18;1.50;;;1.50;;
9968;SDS011;5025;48.890;9.278;2022-10-16T06:48:46;1.73;;;1.63;;
9968;SDS011;5025;48.890;9.278;2022-10-16T06:51:13;1.73;;;1.63;;
9968;SDS011;5025;48.890;9.278;2022-10-16T06:53:44;1.60;;;1.50;;
9968;SDS011;5025;48.890;9.278;2022-10-16T06:56:15;1.60;;;1.60;;
9968;SDS011;5025;48.890;9.278;2022-10-16T06:58:45;1.50;;;1.50;;
9968;SDS011;5025;48.890;9.278;2022-10-16T07:01:12;1.90;;;1.70;;
9968;SDS011;5025;48.890;9.278;2022-10-16T07:03:41;1.67;;;1.57;;
9968;SDS011;5025;48.890;9.278;2022-10-16T07:06:08;1.90;;;1.80;;
9968;SDS011;5025;48.890;9.278;2022-10-16T07:08:37;1.70;;;1.60;;
9968;SDS011;5025;48.890;9.278;2022-10-16T07:11:07;1.50;;;1.50;;
9968;SDS011;5025;48.890;9.278;2022-10-16T07:13:39;1.77;;;1.67;;
9968;SDS011;5025;48.890;9.278;2022-10-16T07:16:16;1.40;;;1.30;;
9968;SDS011;5025;48.890;9.278;2022-10-16T07:18:43;1.50;;;1.40;;
9968;SDS011;5025;48.890;9.278;2022-10-16T07:21:12;1.80;;;1.70;;
9968;SDS011;5025;48.890;9.278;2022-10-16T07:23:43;1.47;;;1.47;;
9968;SDS011;5025;48.890;9.278;2022-10-16T07:26:24;1.50;;;1.50;;
9968;SDS011;5025;48.890;9.278;2022-10-16T07:28:50;1.63;;;1.53;;
9968;SDS011;5025;48.890;9.278;2022-10-16T07:31:17;1.50;;;1.40;;
9968;SDS011;5025;48.890;9.278;2022-10-16T07:33:44;1.50;;;1.40;;
9968;SDS011;5025;48.890;9.278;2022-10-16T07:36:14;1.60;;;1.50;;
9968;SDS011;5025;48.890;9.278;2022-10-16T07:38:41;1.40;;;1.40;;
9968;SDS011;5025;48.890;9.278;2022-10-16T07:41:08;1.30;;;1.30;;
9968;SDS011;5025;48.890;9.278;2022-10-16T07:43:44;1.40;;;1.40;;
9968;SDS011;5025;48.890;9.278;2022-10-16T07:46:24;1.60;;;1.50;;
9968;SDS011;5025;48.890;9.278;2022-10-16T07:49:01;1.53;;;1.43;;
9968;SDS011;5025;48.890;9.278;2022-10-16T07:51:32;1.40;;;1.30;;
9968;SDS011;5025;48.890;9.278;2022-10-16T07:53:57;1.50;;;1.40;;
9968;SDS011;5025;48.890;9.278;2022-10-16T07:56:23;1.27;;;1.27;;
9968;SDS011;5025;48.890;9.278;2022-10-16T07:58:49;1.50;;;1.50;;
9968;SDS011;5025;48.890;9.278;2022-10-16T08:01:15;1.47;;;1.47;;
9968;SDS011;5025;48.890;9.278;2022-10-16T08:03:42;1.40;;;1.40;;
9968;SDS011;5025;48.890;9.278;2022-10-16T08:06:16;1.30;;;1.30;;
9968;SDS011;5025;48.890;9.278;2022-10-16T08:08:57;1.40;;;1.40;;
9968;SDS011;5025;48.890;9.278;2022-10-16T08:11:22;1.40;;;1.40;;
9968;SDS011;5025;48.890;9.278;2022-10-16T08:13:48;1.67;;;1.57;;
9968;SDS011;5025;48.890;9.278;2022-10-16T08:16:13;1.40;;;1.40;;
9968;SDS011;5025;48.890;9.278;2022-10-16T08:18:42;1.40;;;1.40;;
9968;SDS011;5025;48.890;9.278;2022-10-16T08:21:12;1.30;;;1.30;;
9968;SDS011;5025;48.890;9.278;2022-10-16T08:23:45;1.50;;;1.50;;
9968;SDS011;5025;48.890;9.278;2022-10-16T08:26:16;1.40;;;1.30;;
9968;SDS011;5025;48.890;9.278;2022-10-16T08:28:41;1.40;;;1.40;;
9968;SDS011;5025;48.890;9.278;2022-10-16T08:31:08;2.00;;;1.80;;
9968;SDS011;5025;48.890;9.278;2022-10-16T08:33:45;2.07;;;1.83;;
9968;SDS011;5025;48.890;9.278;2022-10-16T08:36:15;2.23;;;1.97;;
9968;SDS011;5025;48.890;9.278;2022-10-16T08:39:01;2.13;;;1.70;;
9968;SDS011;5025;48.890;9.278;2022-10-16T08:44:26;1.70;;;1.70;;
9968;SDS011;5025;48.890;9.278;2022-10-16T08:49:40;1.70;;;1.60;;
9968;SDS011;5025;48.890;9.278;2022-10-16T08:52:10;1.70;;;1.50;;
9968;SDS011;5025;48.890;9.278;2022-10-16T08:54:41;1.60;;;1.50;;
9968;SDS011;5025;48.890;9.278;2022-10-16T08:57:12;1.53;;;1.53;;
9968;SDS011;5025;48.890;9.278;2022-10-16T08:59:41;3.17;;;1.50;;
9968;SDS011;5025;48.890;9.278;2022-10-16T09:05:22;1.73;;;1.63;;
9968;SDS011;5025;48.890;9.278;2022-10-16T09:08:16;1.50;;;1.50;;
9968;SDS011;5025;48.890;9.278;2022-10-16T09:11:14;1.70;;;1.60;;
9968;SDS011;5025;48.890;9.278;2022-10-16T09:16:30;1.60;;;1.60;;
9968;SDS011;5025;48.890;9.278;2022-10-16T09:19:13;1.73;;;1.50;;
9968;SDS011;5025;48.890;9.278;2022-10-16T09:21:45;1.63;;;1.53;;
9968;SDS011;5025;48.890;9.278;2022-10-16T09:26:43;1.33;;;1.33;;
9968;SDS011;5025;48.890;9.278;2022-10-16T09:29:13;1.43;;;1.33;;
9968;SDS011;5025;48.890;9.278;2022-10-16T09:31:39;1.90;;;1.70;;
9968;SDS011;5025;48.890;9.278;2022-10-16T09:34:06;1.50;;;1.50;;
9968;SDS011;5025;48.890;9.278;2022-10-16T09:36:40;1.50;;;1.40;;
9968;SDS011;5025;48.890;9.278;2022-10-16T09:39:10;1.63;;;1.50;;
9968;SDS011;5025;48.890;9.278;2022-10-16T09:41:39;1.50;;;1.40;;
9968;SDS011;5025;48.890;9.278;2022-10-16T09:47:16;1.70;;;1.60;;
9968;SDS011;5025;48.890;9.278;2022-10-16T09:49:54;1.40;;;1.30;;
9968;SDS011;5025;48.890;9.278;2022-10-16T09:52:23;1.40;;;1.40;;
9968;SDS011;5025;48.890;9.278;2022-10-16T09:54:53;1.43;;;1.37;;
9968;SDS011;5025;48.890;9.278;2022-10-16T09:57:20;1.37;;;1.27;;
9968;SDS011;5025;48.890;9.278;2022-10-16T09:59:47;1.33;;;1.20;;
9968;SDS011;5025;48.890;9.278;2022-10-16T10:02:14;1.83;;;1.40;;
9968;SDS011;5025;48.890;9.278;2022-10-16T10:04:44;1.47;;;1.40;;
9968;SDS011;5025;48.890;9.278;2022-10-16T10:07:18;2.00;;;1.90;;
9968;SDS011;5025;48.890;9.278;2022-10-16T10:09:46;1.93;;;1.70;;
9968;SDS011;5025;48.890;9.278;2022-10-16T10:14:52;1.40;;;1.40;;
9968;SDS011;5025;48.890;9.278;2022-10-16T10:17:21;2.50;;;1.43;;
9968;SDS011;5025;48.890;9.278;2022-10-16T10:22:44;1.50;;;1.40;;
9968;SDS011;5025;48.890;9.278;2022-10-16T10:35:48;1.40;;;1.40;;
9968;SDS011;5025;48.890;9.278;2022-10-16T10:46:09;1.23;;;1.20;;
9968;SDS011;5025;48.890;9.278;2022-10-16T10:48:54;1.30;;;1.20;;
9968;SDS011;5025;48.890;9.278;2022-10-16T11:05:51;1.40;;;1.40;;
9968;SDS011;5025;48.890;9.278;2022-10-16T11:08:24;1.70;;;1.60;;
9968;SDS011;5025;48.890;9.278;2022-10-16T11:11:00;1.20;;;1.20;;
9968;SDS011;5025;48.890;9.278;2022-10-16T11:13:31;1.63;;;1.37;;
9968;SDS011;5025;48.890;9.278;2022-10-16T11:16:09;1.43;;;1.33;;
9968;SDS011;5025;48.890;9.278;2022-10-16T11:18:51;1.53;;;1.47;;
9968;SDS011;5025;48.890;9.278;2022-10-16T11:21:19;1.77;;;1.40;;
9968;SDS011;5025;48.890;9.278;2022-10-16T11:26:19;1.40;;;1.40;;
9968;SDS011;5025;48.890;9.278;2022-10-16T11:28:53;1.40;;;1.40;;
9968;SDS011;5025;48.890;9.278;2022-10-16T11:36:25;1.23;;;1.20;;
9968;SDS011;5025;48.890;9.278;2022-10-16T11:39:11;1.70;;;1.60;;
9968;SDS011;5025;48.890;9.278;2022-10-16T11:41:50;1.50;;;1.50;;
9968;SDS011;5025;48.890;9.278;2022-10-16T11:44:33;2.30;;;1.30;;
9968;SDS011;5025;48.890;9.278;2022-10-16T11:47:09;1.50;;;1.40;;
9968;SDS011;5025;48.890;9.278;2022-10-16T11:49:36;2.97;;;1.20;;
9968;SDS011;5025;48.890;9.278;2022-10-16T11:54:41;1.43;;;1.30;;
9968;SDS011;5025;48.890;9.278;2022-10-16T11:57:27;1.47;;;1.40;;
9968;SDS011;5025;48.890;9.278;2022-10-16T12:07:47;1.40;;;1.30;;
9968;SDS011;5025;48.890;9.278;2022-10-16T12:10:35;1.20;;;1.20;;
9968;SDS011;5025;48.890;9.278;2022-10-16T12:13:02;1.37;;;1.37;;
9968;SDS011;5025;48.890;9.278;2022-10-16T12:15:30;1.70;;;1.60;;
9968;SDS011;5025;48.890;9.278;2022-10-16T12:17:58;1.30;;;1.20;;
9968;SDS011;5025;48.890;9.278;2022-10-16T12:20:31;1.43;;;1.40;;
9968;SDS011;5025;48.890;9.278;2022-10-16T12:22:59;1.37;;;1.30;;
9968;SDS011;5025;48.890;9.278;2022-10-16T12:25:33;1.50;;;1.40;;
9968;SDS011;5025;48.890;9.278;2022-10-16T12:28:04;1.20;;;1.20;;
9968;SDS011;5025;48.890;9.278;2022-10-16T12:30:54;1.20;;;1.20;;
9968;SDS011;5025;48.890;9.278;2022-10-16T12:33:25;1.67;;;1.57;;
9968;SDS011;5025;48.890;9.278;2022-10-16T12:35:52;1.53;;;1.30;;
9968;SDS011;5025;48.890;9.278;2022-10-16T12:38:26;1.60;;;1.50;;
9968;SDS011;5025;48.890;9.278;2022-10-16T12:41:00;1.47;;;1.37;;
9968;SDS011;5025;48.890;9.278;2022-10-16T12:43:40;1.37;;;1.37;;
9968;SDS011;5025;48.890;9.278;2022-10-16T12:48:39;1.10;;;1.10;;
9968;SDS011;5025;48.890;9.278;2022-10-16T12:51:11;1.47;;;1.30;;
9968;SDS011;5025;48.890;9.278;2022-10-16T12:53:45;1.43;;;1.30;;
9968;SDS011;5025;48.890;9.278;2022-10-16T12:56:22;1.50;;;1.40;;
9968;SDS011;5025;48.890;9.278;2022-10-16T12:59:05;1.53;;;1.50;;
9968;SDS011;5025;48.890;9.278;2022-10-16T13:04:29;1.50;;;1.40;;
9968;SDS011;5025;48.890;9.278;2022-10-16T13:12:32;1.30;;;1.20;;
9968;SDS011;5025;48.890;9.278;2022-10-16T13:20:26;1.53;;;1.43;;
9968;SDS011;5025;48.890;9.278;2022-10-16T13:25:42;1.10;;;1.10;;
9968;SDS011;5025;48.890;9.278;2022-10-16T13:28:31;1.47;;;1.37;;
9968;SDS011;5025;48.890;9.278;2022-10-16T13:30:58;1.20;;;1.20;;
9968;SDS011;5025;48.890;9.278;2022-10-16T13:33:36;1.20;;;1.20;;
9968;SDS011;5025;48.890;9.278;2022-10-16T13:36:04;1.50;;;1.40;;
9968;SDS011;5025;48.890;9.278;2022-10-16T13:38:31;1.30;;;1.30;;
9968;SDS011;5025;48.890;9.278;2022-10-16T13:41:02;1.43;;;1.30;;
9968;SDS011;5025;48.890;9.278;2022-10-16T13:43:49;1.20;;;1.20;;
9968;SDS011;5025;48.890;9.278;2022-10-16T13:46:18;1.10;;;1.10;;
9968;SDS011;5025;48.890;9.278;2022-10-16T13:48:55;1.47;;;1.30;;
9968;SDS011;5025;48.890;9.278;2022-10-16T13:51:21;1.20;;;1.20;;
9968;SDS011;5025;48.890;9.278;2022-10-16T13:53:47;1.00;;;1.00;;
9968;SDS011;5025;48.890;9.278;2022-10-16T13:56:18;1.03;;;1.03;;
9968;SDS011;5025;48.890;9.278;2022-10-16T13:58:45;1.10;;;1.10;;
9968;SDS011;5025;48.890;9.278;2022-10-16T14:03:43;1.20;;;1.20;;
9968;SDS011;5025;48.890;9.278;2022-10-16T14:06:16;1.13;;;1.13;;
9968;SDS011;5025;48.890;9.278;2022-10-16T14:08:48;1.00;;;1.00;;
9968;SDS011;5025;48.890;9.278;2022-10-16T14:11:23;1.10;;;1.10;;
9968;SDS011;5025;48.890;9.278;2022-10-16T14:13:50;1.20;;;1.20;;
9968;SDS011;5025;48.890;9.278;2022-10-16T14:16:17;1.10;;;1.10;;
9968;SDS011;5025;48.890;9.278;2022-10-16T14:18:55;0.90;;;0.90;;
9968;SDS011;5025;48.890;9.278;2022-10-16T14:21:23;1.07;;;1.07;;
9968;SDS011;5025;48.890;9.278;2022-10-16T14:23:49;1.20;;;1.20;;
9968;SDS011;5025;48.890;9.278;2022-10-16T14:26:16;1.30;;;1.20;;
9968;SDS011;5025;48.890;9.278;2022-10-16T14:28:44;1.07;;;1.07;;
9968;SDS011;5025;48.890;9.278;2022-10-16T14:33:48;0.90;;;0.90;;
9968;SDS011;5025;48.890;9.278;2022-10-16T14:36:14;1.10;;;1.03;;
9968;SDS011;5025;48.890;9.278;2022-10-16T14:38:48;1.10;;;1.10;;
9968;SDS011;5025;48.890;9.278;2022-10-16T14:41:20;1.20;;;1.20;;
9968;SDS011;5025;48.890;9.278;2022-10-16T14:43:49;1.00;;;1.00;;
9968;SDS011;5025;48.890;9.278;2022-10-16T14:46:19;1.17;;;1.17;;
9968;SDS011;5025;48.890;9.278;2022-10-16T14:48:51;1.20;;;1.20;;
9968;SDS011;5025;48.890;9.278;2022-10-16T14:51:23;1.10;;;1.10;;
9968;SDS011;5025;48.890;9.278;2022-10-16T14:53:49;1.20;;;1.20;;
9968;SDS011;5025;48.890;9.278;2022-10-16T14:56:24;1.00;;;1.00;;
9968;SDS011;5025;48.890;9.278;2022-10-16T14:58:54;1.20;;;1.20;;
9968;SDS011;5025;48.890;9.278;2022-10-16T15:01:20;1.00;;;1.00;;
9968;SDS011;5025;48.890;9.278;2022-10-16T15:03:46;1.17;;;1.10;;
9968;SDS011;5025;48.890;9.278;2022-10-16T15:06:12;1.10;;;1.10;;
9968;SDS011;5025;48.890;9.278;2022-10-16T15:08:40;1.10;;;1.10;;
9968;SDS011;5025;48.890;9.278;2022-10-16T15:11:09;1.00;;;1.00;;
9968;SDS011;5025;48.890;9.278;2022-10-16T15:13:37;2.70;;;1.33;;
9968;SDS011;5025;48.890;9.278;2022-10-16T15:16:02;1.20;;;1.20;;
9968;SDS011;5025;48.890;9.278;2022-10-16T15:18:28;1.83;;;1.10;;
9968;SDS011;5025;48.890;9.278;2022-10-16T15:20:53;1.10;;;1.10;;
9968;SDS011;5025;48.890;9.278;2022-10-16T15:23:20;1.00;;;1.00;;
9968;SDS011;5025;48.890;9.278;2022-10-16T15:25:47;1.10;;;1.10;;
9968;SDS011;5025;48.890;9.278;2022-10-16T15:28:15;1.20;;;1.20;;
9968;SDS011;5025;48.890;9.278;2022-10-16T15:30:41;1.30;;;1.20;;
9968;SDS011;5025;48.890;9.278;2022-10-16T15:33:11;1.53;;;1.43;;
9968;SDS011;5025;48.890;9.278;2022-10-16T15:35:38;1.30;;;1.30;;
9968;SDS011;5025;48.890;9.278;2022-10-16T15:38:04;1.20;;;1.20;;
9968;SDS011;5025;48.890;9.278;2022-10-16T15:40:29;1.33;;;1.20;;
9968;SDS011;5025;48.890;9.278;2022-10-16T15:42:55;1.30;;;1.30;;
9968;SDS011;5025;48.890;9.278;2022-10-16T15:45:20;1.23;;;1.23;;
9968;SDS011;5025;48.890;9.278;2022-10-16T15:47:45;1.30;;;1.30;;
9968;SDS011;5025;48.890;9.278;2022-10-16T15:50:12;1.33;;;1.33;;
9968;SDS011;5025;48.890;9.278;2022-10-16T15:52:39;1.47;;;1.47;;
9968;SDS011;5025;48.890;9.278;2022-10-16T15:55:08;1.50;;;1.40;;
9968;SDS011;5025;48.890;9.278;2022-10-16T15:57:35;1.70;;;1.60;;
9968;SDS011;5025;48.890;9.278;2022-10-16T16:00:04;1.60;;;1.50;;
9968;SDS011;5025;48.890;9.278;2022-10-16T16:02:31;1.30;;;1.30;;
9968;SDS011;5025;48.890;9.278;2022-10-16T16:04:56;1.80;;;1.70;;
9968;SDS011;5025;48.890;9.278;2022-10-16T16:07:22;1.73;;;1.67;;
9968;SDS011;5025;48.890;9.278;2022-10-16T16:09:47;1.67;;;1.67;;
9968;SDS011;5025;48.890;9.278;2022-10-16T16:12:12;1.70;;;1.60;;
9968;SDS011;5025;48.890;9.278;2022-10-16T16:14:38;1.90;;;1.80;;
9968;SDS011;5025;48.890;9.278;2022-10-16T16:17:03;1.70;;;1.60;;
9968;SDS011;5025;48.890;9.278;2022-10-16T16:19:28;1.53;;;1.53;;
9968;SDS011;5025;48.890;9.278;2022-10-16T16:21:54;1.60;;;1.60;;
9968;SDS011;5025;48.890;9.278;2022-10-16T16:24:19;1.63;;;1.53;;
9968;SDS011;5025;48.890;9.278;2022-10-16T16:26:45;1.47;;;1.47;;
9968;SDS011;5025;48.890;9.278;2022-10-16T16:29:11;1.37;;;1.37;;
9968;SDS011;5025;48.890;9.278;2022-10-16T16:31:40;1.90;;;1.80;;
9968;SDS011;5025;48.890;9.278;2022-10-16T16:34:07;1.63;;;1.53;;
9968;SDS011;5025;48.890;9.278;2022-10-16T16:36:32;1.57;;;1.50;;
9968;SDS011;5025;48.890;9.278;2022-10-16T16:38:58;1.63;;;1.60;;
9968;SDS011;5025;48.890;9.278;2022-10-16T16:41:25;1.60;;;1.50;;
9968;SDS011;5025;48.890;9.278;2022-10-16T16:43:52;1.47;;;1.40;;
9968;SDS011;5025;48.890;9.278;2022-10-16T16:46:19;1.60;;;1.50;;
9968;SDS011;5025;48.890;9.278;2022-10-16T16:48:45;1.73;;;1.73;;
9968;SDS011;5025;48.890;9.278;2022-10-16T16:51:14;2.70;;;1.60;;
9968;SDS011;5025;48.890;9.278;2022-10-16T16:53:42;1.80;;;1.70;;
9968;SDS011;5025;48.890;9.278;2022-10-16T16:56:09;1.70;;;1.70;;
9968;SDS011;5025;48.890;9.278;2022-10-16T16:58:34;1.70;;;1.60;;
9968;SDS011;5025;48.890;9.278;2022-10-16T17:01:00;1.87;;;1.70;;
9968;SDS011;5025;48.890;9.278;2022-10-16T17:03:27;1.90;;;1.80;;
9968;SDS011;5025;48.890;9.278;2022-10-16T17:06:00;1.80;;;1.70;;
9968;SDS011;5025;48.890;9.278;2022-10-16T17:08:30;1.80;;;1.70;;
9968;SDS011;5025;48.890;9.278;2022-10-16T17:10:56;2.53;;;1.70;;
9968;SDS011;5025;48.890;9.278;2022-10-16T17:13:23;2.40;;;1.80;;